sensor_id;sensor_type;location;lat;lon;timestamp;pressure;altitude;pressure_sealevel;temperature;humidity
65010;BME280;51556;50.002;22.014;2023-02-01T00:01:07;98495.98;;;1.65;80.01
65010;BME280;51556;50.002;22.014;2023-02-01T00:03:32;98495.46;;;1.64;80.14
65010;BME280;51556;50.002;22.014;2023-02-01T00:05:59;98491.28;;;1.70;79.68
65010;BME280;51556;50.002;22.014;2023-02-01T00:08:25;98490.75;;;1.74;79.86
65010;BME280;51556;50.002;22.014;2023-02-01T00:10:59;98493.16;;;1.79;79.49
65010;BME280;51556;50.002;22.014;2023-02-01T00:13:25;98487.96;;;1.78;79.92
65010;BME280;51556;50.002;22.014;2023-02-01T00:15:52;98487.47;;;1.68;79.93
65010;BME280;51556;50.002;22.014;2023-02-01T00:18:18;98491.47;;;1.65;80.18
65010;BME280;51556;50.002;22.014;2023-02-01T00:20:46;98483.52;;;1.58;80.82
65010;BME280;51556;50.002;22.014;2023-02-01T00:23:12;98470.50;;;1.60;80.53
65010;BME280;51556;50.002;22.014;2023-02-01T00:25:37;98476.58;;;1.57;80.75
65010;BME280;51556;50.002;22.014;2023-02-01T00:28:03;98477.79;;;1.60;80.43
65010;BME280;51556;50.002;22.014;2023-02-01T00:30:28;98474.48;;;1.61;80.30
65010;BME280;51556;50.002;22.014;2023-02-01T00:32:54;98469.98;;;1.61;80.70
65010;BME280;51556;50.002;22.014;2023-02-01T00:35:20;98465.82;;;1.59;80.74
65010;BME280;51556;50.002;22.014;2023-02-01T00:37:45;98472.40;;;1.60;80.84
65010;BME280;51556;50.002;22.014;2023-02-01T00:40:11;98471.36;;;1.61;80.74
65010;BME280;51556;50.002;22.014;2023-02-01T00:42:37;98470.17;;;1.50;81.42
65010;BME280;51556;50.002;22.014;2023-02-01T00:45:02;98470.01;;;1.52;81.23
65010;BME280;51556;50.002;22.014;2023-02-01T00:47:28;98464.63;;;1.51;81.14
65010;BME280;51556;50.002;22.014;2023-02-01T00:49:55;98464.80;;;1.55;81.20
65010;BME280;51556;50.002;22.014;2023-02-01T00:52:21;98461.66;;;1.56;80.97
65010;BME280;51556;50.002;22.014;2023-02-01T00:54:46;98452.13;;;1.58;81.02
65010;BME280;51556;50.002;22.014;2023-02-01T00:57:12;98451.95;;;1.57;81.40
65010;BME280;51556;50.002;22.014;2023-02-01T00:59:37;98452.14;;;1.51;81.52
65010;BME280;51556;50.002;22.014;2023-02-01T01:02:03;98464.63;;;1.51;81.39
65010;BME280;51556;50.002;22.014;2023-02-01T01:04:28;98464.30;;;1.49;81.88
65010;BME280;51556;50.002;22.014;2023-02-01T01:06:54;98458.40;;;1.51;81.89
65010;BME280;51556;50.002;22.014;2023-02-01T01:09:19;98458.20;;;1.53;81.77
65010;BME280;51556;50.002;22.014;2023-02-01T01:11:45;98448.65;;;1.58;81.58
65010;BME280;51556;50.002;22.014;2023-02-01T01:14:11;98441.53;;;1.61;81.68
65010;BME280;51556;50.002;22.014;2023-02-01T01:16:36;98436.83;;;1.65;81.46
65010;BME280;51556;50.002;22.014;2023-02-01T01:19:02;98433.36;;;1.66;81.40
65010;BME280;51556;50.002;22.014;2023-02-01T01:21:29;98426.73;;;1.73;81.10
65010;BME280;51556;50.002;22.014;2023-02-01T01:23:55;98414.75;;;1.77;80.92
65010;BME280;51556;50.002;22.014;2023-02-01T01:26:24;98405.20;;;1.79;80.64
65010;BME280;51556;50.002;22.014;2023-02-01T01:28:50;98403.09;;;1.80;81.09
65010;BME280;51556;50.002;22.014;2023-02-01T01:31:17;98404.59;;;1.88;80.78
65010;BME280;51556;50.002;22.014;2023-02-01T01:33:46;98413.58;;;1.94;80.60
65010;BME280;51556;50.002;22.014;2023-02-01T01:36:12;98411.64;;;2.00;80.38
65010;BME280;51556;50.002;22.014;2023-02-01T01:38:39;98408.70;;;1.98;80.48
65010;BME280;51556;50.002;22.014;2023-02-01T01:41:05;98415.13;;;1.96;80.74
65010;BME280;51556;50.002;22.014;2023-02-01T01:43:48;98420.18;;;1.94;80.93
65010;BME280;51556;50.002;22.014;2023-02-01T01:46:19;98417.05;;;1.93;81.11
65010;BME280;51556;50.002;22.014;2023-02-01T01:48:46;98416.86;;;1.97;80.88
65010;BME280;51556;50.002;22.014;2023-02-01T01:51:14;98411.99;;;1.98;81.04
65010;BME280;51556;50.002;22.014;2023-02-01T01:53:46;98413.19;;;2.03;81.09
65010;BME280;51556;50.002;22.014;2023-02-01T01:56:13;98406.89;;;2.11;80.78
65010;BME280;51556;50.002;22.014;2023-02-01T01:58:40;98398.71;;;2.14;80.73
65010;BME280;51556;50.002;22.014;2023-02-01T02:01:05;98401.67;;;2.12;80.80
65010;BME280;51556;50.002;22.014;2023-02-01T02:03:44;98399.77;;;2.10;80.83
65010;BME280;51556;50.002;22.014;2023-02-01T02:06:24;98395.44;;;2.09;80.98
65010;BME280;51556;50.002;22.014;2023-02-01T02:08:52;98391.77;;;2.14;80.74
65010;BME280;51556;50.002;22.014;2023-02-01T02:11:17;98393.33;;;2.15;80.76
65010;BME280;51556;50.002;22.014;2023-02-01T02:13:47;98383.77;;;2.15;80.66
65010;BME280;51556;50.002;22.014;2023-02-01T02:21:27;98367.09;;;2.17;80.76
65010;BME280;51556;50.002;22.014;2023-02-01T02:26:42;98377.14;;;2.20;80.96
65010;BME280;51556;50.002;22.014;2023-02-01T02:32:13;98373.34;;;2.36;80.43
65010;BME280;51556;50.002;22.014;2023-02-01T02:34:56;98376.38;;;2.47;80.12
65010;BME280;51556;50.002;22.014;2023-02-01T02:37:44;98376.84;;;2.54;79.87
65010;BME280;51556;50.002;22.014;2023-02-01T02:45:46;98377.83;;;2.59;79.50
65010;BME280;51556;50.002;22.014;2023-02-01T02:48:47;98374.64;;;2.64;79.13
65010;BME280;51556;50.002;22.014;2023-02-01T02:51:32;98390.14;;;2.60;79.44
65010;BME280;51556;50.002;22.014;2023-02-01T02:54:22;98387.88;;;2.60;79.24
65010;BME280;51556;50.002;22.014;2023-02-01T02:57:10;98395.52;;;2.61;79.13
65010;BME280;51556;50.002;22.014;2023-02-01T02:59:57;98397.55;;;2.65;79.40
65010;BME280;51556;50.002;22.014;2023-02-01T03:02:43;98398.61;;;2.64;79.35
65010;BME280;51556;50.002;22.014;2023-02-01T03:05:36;98402.34;;;2.74;79.31
65010;BME280;51556;50.002;22.014;2023-02-01T03:08:10;98420.65;;;2.67;78.90
65010;BME280;51556;50.002;22.014;2023-02-01T03:13:38;98413.58;;;2.62;78.95
65010;BME280;51556;50.002;22.014;2023-02-01T03:19:18;98418.59;;;2.64;79.04
65010;BME280;51556;50.002;22.014;2023-02-01T03:22:05;98427.40;;;2.71;78.95
65010;BME280;51556;50.002;22.014;2023-02-01T03:24:40;98432.84;;;2.64;78.75
65010;BME280;51556;50.002;22.014;2023-02-01T03:32:32;98442.01;;;2.69;78.08
65010;BME280;51556;50.002;22.014;2023-02-01T03:35:23;98449.84;;;2.68;77.99
65010;BME280;51556;50.002;22.014;2023-02-01T03:37:56;98444.77;;;2.72;77.85
65010;BME280;51556;50.002;22.014;2023-02-01T03:40:26;98451.75;;;2.68;77.74
65010;BME280;51556;50.002;22.014;2023-02-01T03:42:55;98446.70;;;2.70;78.17
65010;BME280;51556;50.002;22.014;2023-02-01T03:45:27;98450.30;;;2.76;77.70
65010;BME280;51556;50.002;22.014;2023-02-01T03:47:55;98450.83;;;2.76;77.57
65010;BME280;51556;50.002;22.014;2023-02-01T03:50:24;98460.73;;;2.76;77.36
65010;BME280;51556;50.002;22.014;2023-02-01T03:53:02;98468.15;;;2.82;76.95
65010;BME280;51556;50.002;22.014;2023-02-01T03:55:28;98474.09;;;2.77;76.90
65010;BME280;51556;50.002;22.014;2023-02-01T03:58:10;98482.61;;;2.77;77.11
65010;BME280;51556;50.002;22.014;2023-02-01T04:00:37;98479.13;;;2.77;77.54
65010;BME280;51556;50.002;22.014;2023-02-01T04:03:05;98488.40;;;2.71;77.51
65010;BME280;51556;50.002;22.014;2023-02-01T04:05:30;98484.69;;;2.58;78.41
65010;BME280;51556;50.002;22.014;2023-02-01T04:07:57;98485.23;;;2.56;78.41
65010;BME280;51556;50.002;22.014;2023-02-01T04:10:23;98482.65;;;2.53;78.89
65010;BME280;51556;50.002;22.014;2023-02-01T04:12:48;98479.35;;;2.51;78.98
65010;BME280;51556;50.002;22.014;2023-02-01T04:15:14;98479.91;;;2.46;79.28
65010;BME280;51556;50.002;22.014;2023-02-01T04:17:39;98484.63;;;2.42;79.20
65010;BME280;51556;50.002;22.014;2023-02-01T04:20:05;98491.08;;;2.38;79.48
65010;BME280;51556;50.002;22.014;2023-02-01T04:22:31;98488.09;;;2.45;79.59
65010;BME280;51556;50.002;22.014;2023-02-01T04:24:57;98491.05;;;2.42;79.47
65010;BME280;51556;50.002;22.014;2023-02-01T04:27:22;98484.09;;;2.45;79.40
65010;BME280;51556;50.002;22.014;2023-02-01T04:29:48;98487.87;;;2.51;79.26
65010;BME280;51556;50.002;22.014;2023-02-01T04:32:17;98488.86;;;2.58;78.93
65010;BME280;51556;50.002;22.014;2023-02-01T04:34:45;98487.92;;;2.63;78.87
65010;BME280;51556;50.002;22.014;2023-02-01T04:37:10;98486.00;;;2.65;78.41
65010;BME280;51556;50.002;22.014;2023-02-01T04:39:36;98490.70;;;2.65;78.08
65010;BME280;51556;50.002;22.014;2023-02-01T04:42:01;98492.52;;;2.57;78.29
65010;BME280;51556;50.002;22.014;2023-02-01T04:44:27;98492.34;;;2.57;78.29
65010;BME280;51556;50.002;22.014;2023-02-01T04:46:52;98489.86;;;2.61;78.16
65010;BME280;51556;50.002;22.014;2023-02-01T04:49:18;98492.95;;;2.66;78.07
65010;BME280;51556;50.002;22.014;2023-02-01T04:51:43;98503.38;;;2.64;77.56
65010;BME280;51556;50.002;22.014;2023-02-01T04:54:09;98503.67;;;2.72;77.30
65010;BME280;51556;50.002;22.014;2023-02-01T04:56:36;98515.13;;;2.76;76.99
65010;BME280;51556;50.002;22.014;2023-02-01T04:59:02;98514.43;;;2.75;76.99
65010;BME280;51556;50.002;22.014;2023-02-01T05:01:28;98517.23;;;2.72;76.84
65010;BME280;51556;50.002;22.014;2023-02-01T05:03:54;98525.77;;;2.67;76.31
65010;BME280;51556;50.002;22.014;2023-02-01T05:06:20;98528.87;;;2.73;76.68
65010;BME280;51556;50.002;22.014;2023-02-01T05:08:45;98534.45;;;2.70;76.17
65010;BME280;51556;50.002;22.014;2023-02-01T05:11:11;98537.02;;;2.77;75.86
65010;BME280;51556;50.002;22.014;2023-02-01T05:13:57;98546.92;;;2.75;75.78
65010;BME280;51556;50.002;22.014;2023-02-01T05:16:22;98547.24;;;2.80;75.69
65010;BME280;51556;50.002;22.014;2023-02-01T05:18:48;98545.85;;;2.80;75.79
65010;BME280;51556;50.002;22.014;2023-02-01T05:21:13;98544.10;;;2.82;75.77
65010;BME280;51556;50.002;22.014;2023-02-01T05:23:39;98545.98;;;2.85;75.84
65010;BME280;51556;50.002;22.014;2023-02-01T05:26:23;98543.34;;;2.91;75.30
65010;BME280;51556;50.002;22.014;2023-02-01T05:28:49;98540.77;;;2.86;74.90
65010;BME280;51556;50.002;22.014;2023-02-01T05:31:14;98542.48;;;2.89;74.94
65010;BME280;51556;50.002;22.014;2023-02-01T05:33:40;98544.20;;;2.91;74.94
65010;BME280;51556;50.002;22.014;2023-02-01T05:36:05;98546.27;;;2.94;74.99
65010;BME280;51556;50.002;22.014;2023-02-01T05:38:31;98553.77;;;2.90;74.43
65010;BME280;51556;50.002;22.014;2023-02-01T05:40:57;98564.83;;;2.74;74.29
65010;BME280;51556;50.002;22.014;2023-02-01T05:43:22;98560.02;;;2.66;74.95
65010;BME280;51556;50.002;22.014;2023-02-01T05:45:48;98557.73;;;2.70;74.33
65010;BME280;51556;50.002;22.014;2023-02-01T05:48:14;98562.94;;;2.72;74.45
65010;BME280;51556;50.002;22.014;2023-02-01T05:50:39;98562.23;;;2.72;74.33
65010;BME280;51556;50.002;22.014;2023-02-01T05:53:05;98562.25;;;2.70;74.05
65010;BME280;51556;50.002;22.014;2023-02-01T05:55:31;98567.17;;;2.63;74.26
65010;BME280;51556;50.002;22.014;2023-02-01T05:57:57;98554.95;;;2.70;74.28
65010;BME280;51556;50.002;22.014;2023-02-01T06:00:22;98550.30;;;2.66;74.08
65010;BME280;51556;50.002;22.014;2023-02-01T06:02:48;98562.01;;;2.57;73.76
65010;BME280;51556;50.002;22.014;2023-02-01T06:05:13;98559.20;;;2.59;74.40
65010;BME280;51556;50.002;22.014;2023-02-01T06:07:39;98555.89;;;2.61;74.05
65010;BME280;51556;50.002;22.014;2023-02-01T06:10:05;98552.73;;;2.63;74.03
65010;BME280;51556;50.002;22.014;2023-02-01T06:12:30;98561.40;;;2.66;74.19
65010;BME280;51556;50.002;22.014;2023-02-01T06:14:56;98567.64;;;2.71;73.77
65010;BME280;51556;50.002;22.014;2023-02-01T06:17:21;98573.57;;;2.67;73.64
65010;BME280;51556;50.002;22.014;2023-02-01T06:19:47;98567.81;;;2.70;73.82
65010;BME280;51556;50.002;22.014;2023-02-01T06:22:13;98566.23;;;2.73;73.62
65010;BME280;51556;50.002;22.014;2023-02-01T06:24:39;98563.61;;;2.76;73.45
65010;BME280;51556;50.002;22.014;2023-02-01T06:27:06;98569.33;;;2.79;73.30
65010;BME280;51556;50.002;22.014;2023-02-01T06:29:32;98565.50;;;2.80;72.78
65010;BME280;51556;50.002;22.014;2023-02-01T06:31:58;98571.07;;;2.78;73.31
65010;BME280;51556;50.002;22.014;2023-02-01T06:34:24;98569.64;;;2.83;73.01
65010;BME280;51556;50.002;22.014;2023-02-01T06:36:50;98566.64;;;2.89;73.00
65010;BME280;51556;50.002;22.014;2023-02-01T06:39:15;98565.80;;;2.85;73.20
65010;BME280;51556;50.002;22.014;2023-02-01T06:41:50;98571.23;;;2.81;73.32
65010;BME280;51556;50.002;22.014;2023-02-01T06:44:16;98577.52;;;2.75;73.44
65010;BME280;51556;50.002;22.014;2023-02-01T06:46:42;98567.94;;;2.78;73.21
65010;BME280;51556;50.002;22.014;2023-02-01T06:49:07;98562.70;;;2.83;73.52
65010;BME280;51556;50.002;22.014;2023-02-01T06:51:34;98564.56;;;2.90;73.22
65010;BME280;51556;50.002;22.014;2023-02-01T06:54:00;98571.55;;;2.84;72.66
65010;BME280;51556;50.002;22.014;2023-02-01T06:56:26;98566.83;;;2.88;72.81
65010;BME280;51556;50.002;22.014;2023-02-01T06:58:52;98567.83;;;2.93;72.83
65010;BME280;51556;50.002;22.014;2023-02-01T07:01:18;98571.89;;;2.84;72.75
65010;BME280;51556;50.002;22.014;2023-02-01T07:03:47;98567.88;;;2.87;73.03
65010;BME280;51556;50.002;22.014;2023-02-01T07:06:13;98570.61;;;2.94;72.50
65010;BME280;51556;50.002;22.014;2023-02-01T07:08:38;98569.17;;;2.98;72.27
65010;BME280;51556;50.002;22.014;2023-02-01T07:11:09;98571.14;;;2.92;72.15
65010;BME280;51556;50.002;22.014;2023-02-01T07:13:35;98571.04;;;3.03;72.20
65010;BME280;51556;50.002;22.014;2023-02-01T07:16:02;98574.52;;;3.01;71.90
65010;BME280;51556;50.002;22.014;2023-02-01T07:18:30;98572.75;;;3.06;71.69
65010;BME280;51556;50.002;22.014;2023-02-01T07:20:56;98572.73;;;3.10;71.41
65010;BME280;51556;50.002;22.014;2023-02-01T07:23:22;98574.42;;;3.15;71.72
65010;BME280;51556;50.002;22.014;2023-02-01T07:25:48;98574.93;;;3.17;71.62
65010;BME280;51556;50.002;22.014;2023-02-01T07:28:14;98568.08;;;3.26;71.66
65010;BME280;51556;50.002;22.014;2023-02-01T07:30:39;98574.48;;;3.30;71.18
65010;BME280;51556;50.002;22.014;2023-02-01T07:33:06;98575.94;;;3.22;70.93
65010;BME280;51556;50.002;22.014;2023-02-01T07:35:32;98576.63;;;3.22;71.11
65010;BME280;51556;50.002;22.014;2023-02-01T07:37:58;98577.33;;;3.21;71.04
65010;BME280;51556;50.002;22.014;2023-02-01T07:40:24;98581.83;;;3.24;71.35
65010;BME280;51556;50.002;22.014;2023-02-01T07:42:57;98574.88;;;3.23;71.02
65010;BME280;51556;50.002;22.014;2023-02-01T07:45:23;98573.30;;;3.25;71.57
65010;BME280;51556;50.002;22.014;2023-02-01T07:47:50;98576.21;;;3.30;71.44
65010;BME280;51556;50.002;22.014;2023-02-01T07:50:16;98574.38;;;3.39;71.84
65010;BME280;51556;50.002;22.014;2023-02-01T07:52:41;98567.77;;;3.40;70.90
65010;BME280;51556;50.002;22.014;2023-02-01T07:55:07;98572.31;;;3.36;71.32
65010;BME280;51556;50.002;22.014;2023-02-01T07:57:33;98575.13;;;3.34;70.42
65010;BME280;51556;50.002;22.014;2023-02-01T07:59:58;98580.12;;;3.38;71.06
65010;BME280;51556;50.002;22.014;2023-02-01T08:02:42;98579.17;;;3.47;71.26
65010;BME280;51556;50.002;22.014;2023-02-01T08:05:08;98581.29;;;3.44;70.31
65010;BME280;51556;50.002;22.014;2023-02-01T08:07:34;98591.91;;;3.43;70.12
65010;BME280;51556;50.002;22.014;2023-02-01T08:10:00;98584.07;;;3.44;70.09
65010;BME280;51556;50.002;22.014;2023-02-01T08:12:26;98587.92;;;3.40;70.23
65010;BME280;51556;50.002;22.014;2023-02-01T08:14:52;98579.31;;;3.32;70.57
65010;BME280;51556;50.002;22.014;2023-02-01T08:17:19;98578.06;;;3.34;71.17
65010;BME280;51556;50.002;22.014;2023-02-01T08:19:45;98566.25;;;3.34;71.20
65010;BME280;51556;50.002;22.014;2023-02-01T08:22:10;98565.36;;;3.36;71.79
65010;BME280;51556;50.002;22.014;2023-02-01T08:24:36;98573.48;;;3.42;71.16
65010;BME280;51556;50.002;22.014;2023-02-01T08:27:05;98575.71;;;3.45;71.19
65010;BME280;51556;50.002;22.014;2023-02-01T08:29:30;98578.09;;;3.52;70.92
65010;BME280;51556;50.002;22.014;2023-02-01T08:31:56;98578.06;;;3.55;71.08
65010;BME280;51556;50.002;22.014;2023-02-01T08:34:21;98581.21;;;3.52;70.55
65010;BME280;51556;50.002;22.014;2023-02-01T08:36:47;98577.76;;;3.50;70.50
65010;BME280;51556;50.002;22.014;2023-02-01T08:39:12;98574.98;;;3.48;70.37
65010;BME280;51556;50.002;22.014;2023-02-01T08:41:38;98573.41;;;3.50;70.79
65010;BME280;51556;50.002;22.014;2023-02-01T08:44:04;98571.46;;;3.52;70.21
65010;BME280;51556;50.002;22.014;2023-02-01T08:46:29;98571.90;;;3.62;70.37
65010;BME280;51556;50.002;22.014;2023-02-01T08:48:55;98579.98;;;3.71;70.20
65010;BME280;51556;50.002;22.014;2023-02-01T08:51:22;98578.35;;;3.75;69.92
65010;BME280;51556;50.002;22.014;2023-02-01T08:53:48;98576.90;;;3.80;70.05
65010;BME280;51556;50.002;22.014;2023-02-01T08:56:16;98577.87;;;3.88;70.00
65010;BME280;51556;50.002;22.014;2023-02-01T08:58:42;98588.93;;;3.95;69.46
65010;BME280;51556;50.002;22.014;2023-02-01T09:01:12;98584.48;;;4.04;69.14
65010;BME280;51556;50.002;22.014;2023-02-01T09:03:38;98583.27;;;4.03;68.65
65010;BME280;51556;50.002;22.014;2023-02-01T09:06:06;98579.77;;;4.07;68.77
65010;BME280;51556;50.002;22.014;2023-02-01T09:08:32;98584.02;;;4.13;68.50
65010;BME280;51556;50.002;22.014;2023-02-01T09:11:00;98581.59;;;4.11;67.73
65010;BME280;51556;50.002;22.014;2023-02-01T09:13:26;98573.19;;;4.15;67.91
65010;BME280;51556;50.002;22.014;2023-02-01T09:15:55;98577.80;;;4.09;67.42
65010;BME280;51556;50.002;22.014;2023-02-01T09:18:20;98573.95;;;4.10;67.20
65010;BME280;51556;50.002;22.014;2023-02-01T09:20:46;98572.42;;;4.07;67.01
65010;BME280;51556;50.002;22.014;2023-02-01T09:23:11;98567.82;;;4.12;66.91
65010;BME280;51556;50.002;22.014;2023-02-01T09:25:38;98565.05;;;4.11;66.71
65010;BME280;51556;50.002;22.014;2023-02-01T09:28:04;98564.70;;;4.11;67.46
65010;BME280;51556;50.002;22.014;2023-02-01T09:30:35;98561.41;;;4.10;67.25
65010;BME280;51556;50.002;22.014;2023-02-01T09:33:00;98567.73;;;4.07;67.15
65010;BME280;51556;50.002;22.014;2023-02-01T09:35:26;98565.25;;;4.10;67.25
65010;BME280;51556;50.002;22.014;2023-02-01T09:37:52;98565.55;;;4.12;67.29
65010;BME280;51556;50.002;22.014;2023-02-01T09:40:18;98559.77;;;4.15;67.16
65010;BME280;51556;50.002;22.014;2023-02-01T09:46:26;98560.08;;;4.19;67.16
65010;BME280;51556;50.002;22.014;2023-02-01T09:48:35;98563.59;;;4.17;67.28
65010;BME280;51556;50.002;22.014;2023-02-01T09:51:04;98563.44;;;4.14;67.41
65010;BME280;51556;50.002;22.014;2023-02-01T09:53:33;98564.23;;;4.20;67.95
65010;BME280;51556;50.002;22.014;2023-02-01T09:56:05;98565.60;;;4.23;67.92
65010;BME280;51556;50.002;22.014;2023-02-01T09:58:47;98564.92;;;4.22;67.62
65010;BME280;51556;50.002;22.014;2023-02-01T10:01:19;98564.85;;;4.13;67.94
65010;BME280;51556;50.002;22.014;2023-02-01T10:03:47;98561.22;;;4.11;68.24
65010;BME280;51556;50.002;22.014;2023-02-01T10:11:35;98555.37;;;4.19;68.98
65010;BME280;51556;50.002;22.014;2023-02-01T10:22:38;98545.83;;;4.30;69.14
65010;BME280;51556;50.002;22.014;2023-02-01T10:25:24;98545.48;;;4.30;68.81
65010;BME280;51556;50.002;22.014;2023-02-01T10:27:51;98546.96;;;4.36;68.73
65010;BME280;51556;50.002;22.014;2023-02-01T10:30:23;98537.11;;;4.44;68.73
65010;BME280;51556;50.002;22.014;2023-02-01T10:32:55;98537.40;;;4.46;67.92
65010;BME280;51556;50.002;22.014;2023-02-01T10:35:28;98534.61;;;4.46;67.30
65010;BME280;51556;50.002;22.014;2023-02-01T10:38:00;98532.19;;;4.46;67.07
65010;BME280;51556;50.002;22.014;2023-02-01T10:40:27;98527.62;;;4.47;66.50
65010;BME280;51556;50.002;22.014;2023-02-01T10:42:57;98522.77;;;4.46;66.27
65010;BME280;51556;50.002;22.014;2023-02-01T10:45:27;98522.69;;;4.51;66.13
65010;BME280;51556;50.002;22.014;2023-02-01T10:47:55;98523.13;;;4.56;65.67
65010;BME280;51556;50.002;22.014;2023-02-01T10:53:46;98518.63;;;4.66;65.24
65010;BME280;51556;50.002;22.014;2023-02-01T10:56:22;98516.97;;;4.73;64.66
65010;BME280;51556;50.002;22.014;2023-02-01T10:58:48;98514.52;;;4.84;64.39
65010;BME280;51556;50.002;22.014;2023-02-01T11:01:39;98513.30;;;4.94;64.39
65010;BME280;51556;50.002;22.014;2023-02-01T11:04:09;98505.64;;;5.04;63.99
65010;BME280;51556;50.002;22.014;2023-02-01T11:06:43;98501.54;;;5.10;63.37
65010;BME280;51556;50.002;22.014;2023-02-01T11:16:54;98473.48;;;5.46;62.33
65010;BME280;51556;50.002;22.014;2023-02-01T11:19:20;98466.79;;;5.49;61.70
65010;BME280;51556;50.002;22.014;2023-02-01T11:21:51;98468.10;;;5.61;61.45
65010;BME280;51556;50.002;22.014;2023-02-01T11:26:47;98456.41;;;5.78;60.73
65010;BME280;51556;50.002;22.014;2023-02-01T11:29:17;98457.59;;;5.71;60.47
65010;BME280;51556;50.002;22.014;2023-02-01T11:31:45;98452.85;;;5.73;60.32
65010;BME280;51556;50.002;22.014;2023-02-01T11:34:15;98460.44;;;5.78;60.19
65010;BME280;51556;50.002;22.014;2023-02-01T11:36:42;98458.95;;;5.73;59.58
65010;BME280;51556;50.002;22.014;2023-02-01T11:41:42;98455.86;;;5.88;60.37
65010;BME280;51556;50.002;22.014;2023-02-01T11:44:23;98452.07;;;5.95;59.06
65010;BME280;51556;50.002;22.014;2023-02-01T11:46:51;98447.81;;;6.05;59.42
65010;BME280;51556;50.002;22.014;2023-02-01T11:49:25;98442.11;;;5.95;59.11
65010;BME280;51556;50.002;22.014;2023-02-01T11:52:00;98439.05;;;5.82;59.58
65010;BME280;51556;50.002;22.014;2023-02-01T11:59:52;98423.70;;;5.48;60.90
65010;BME280;51556;50.002;22.014;2023-02-01T12:10:36;98423.30;;;5.22;61.87
65010;BME280;51556;50.002;22.014;2023-02-01T12:16:06;98419.60;;;5.07;62.39
65010;BME280;51556;50.002;22.014;2023-02-01T12:18:54;98424.06;;;4.91;62.32
65010;BME280;51556;50.002;22.014;2023-02-01T12:21:32;98420.92;;;5.01;62.82
65010;BME280;51556;50.002;22.014;2023-02-01T12:27:00;98412.29;;;5.06;62.69
65010;BME280;51556;50.002;22.014;2023-02-01T12:29:57;98405.87;;;5.14;62.59
65010;BME280;51556;50.002;22.014;2023-02-01T12:32:37;98409.02;;;5.21;62.18
65010;BME280;51556;50.002;22.014;2023-02-01T12:43:09;98416.30;;;5.51;61.41
65010;BME280;51556;50.002;22.014;2023-02-01T12:45:42;98413.15;;;5.33;61.27
65010;BME280;51556;50.002;22.014;2023-02-01T12:48:24;98414.41;;;5.41;61.76
65010;BME280;51556;50.002;22.014;2023-02-01T12:50:54;98409.90;;;5.48;61.61
65010;BME280;51556;50.002;22.014;2023-02-01T12:53:25;98403.80;;;5.56;61.41
65010;BME280;51556;50.002;22.014;2023-02-01T12:55:55;98398.95;;;5.62;61.35
65010;BME280;51556;50.002;22.014;2023-02-01T13:01:02;98399.30;;;5.55;60.50
65010;BME280;51556;50.002;22.014;2023-02-01T13:03:41;98404.61;;;5.51;60.93
65010;BME280;51556;50.002;22.014;2023-02-01T13:06:20;98400.16;;;5.55;61.21
65010;BME280;51556;50.002;22.014;2023-02-01T13:11:44;98402.82;;;5.60;60.73
65010;BME280;51556;50.002;22.014;2023-02-01T13:16:57;98407.35;;;5.54;60.15
65010;BME280;51556;50.002;22.014;2023-02-01T13:19:51;98406.13;;;5.53;60.45
65010;BME280;51556;50.002;22.014;2023-02-01T13:22:34;98409.39;;;5.48;60.36
65010;BME280;51556;50.002;22.014;2023-02-01T13:27:29;98405.66;;;5.51;60.53
65010;BME280;51556;50.002;22.014;2023-02-01T13:35:21;98404.45;;;5.50;60.38
65010;BME280;51556;50.002;22.014;2023-02-01T13:43:29;98410.46;;;5.46;60.65
65010;BME280;51556;50.002;22.014;2023-02-01T13:46:01;98411.47;;;5.49;60.54
65010;BME280;51556;50.002;22.014;2023-02-01T13:51:05;98408.48;;;5.49;60.75
65010;BME280;51556;50.002;22.014;2023-02-01T13:53:34;98407.02;;;5.44;60.57
65010;BME280;51556;50.002;22.014;2023-02-01T13:56:22;98411.47;;;5.29;60.51
65010;BME280;51556;50.002;22.014;2023-02-01T13:58:50;98409.86;;;5.23;60.81
65010;BME280;51556;50.002;22.014;2023-02-01T14:03:49;98405.63;;;5.25;60.95
65010;BME280;51556;50.002;22.014;2023-02-01T14:06:39;98407.95;;;5.22;61.10
65010;BME280;51556;50.002;22.014;2023-02-01T14:11:52;98407.96;;;5.14;61.06
65010;BME280;51556;50.002;22.014;2023-02-01T14:19:24;98411.57;;;4.97;62.30
65010;BME280;51556;50.002;22.014;2023-02-01T14:21:51;98411.75;;;5.07;62.69
65010;BME280;51556;50.002;22.014;2023-02-01T14:26:52;98404.44;;;5.06;62.02
65010;BME280;51556;50.002;22.014;2023-02-01T14:29:34;98405.58;;;5.11;62.03
65010;BME280;51556;50.002;22.014;2023-02-01T14:32:15;98403.29;;;5.12;62.00
65010;BME280;51556;50.002;22.014;2023-02-01T14:56:06;98396.23;;;4.79;62.90
65010;BME280;51556;50.002;22.014;2023-02-01T15:04:12;98391.65;;;4.71;63.51
65010;BME280;51556;50.002;22.014;2023-02-01T15:06:52;98394.79;;;4.71;63.44
65010;BME280;51556;50.002;22.014;2023-02-01T15:09:25;98396.40;;;4.68;63.49
65010;BME280;51556;50.002;22.014;2023-02-01T15:14:32;98398.98;;;4.70;63.63
65010;BME280;51556;50.002;22.014;2023-02-01T15:16:58;98400.35;;;4.72;63.89
65010;BME280;51556;50.002;22.014;2023-02-01T15:19:26;98398.66;;;4.68;63.96
65010;BME280;51556;50.002;22.014;2023-02-01T15:21:54;98399.70;;;4.69;63.86
65010;BME280;51556;50.002;22.014;2023-02-01T15:24:23;98399.15;;;4.71;63.95
65010;BME280;51556;50.002;22.014;2023-02-01T15:26:50;98402.81;;;4.70;63.95
65010;BME280;51556;50.002;22.014;2023-02-01T15:29:16;98406.81;;;4.71;63.97
65010;BME280;51556;50.002;22.014;2023-02-01T15:31:47;98403.72;;;4.69;63.92
65010;BME280;51556;50.002;22.014;2023-02-01T15:34:13;98406.50;;;4.69;64.04
65010;BME280;51556;50.002;22.014;2023-02-01T15:36:40;98406.92;;;4.65;64.23
65010;BME280;51556;50.002;22.014;2023-02-01T15:39:16;98405.02;;;4.64;64.36
65010;BME280;51556;50.002;22.014;2023-02-01T15:41:55;98409.39;;;4.63;64.41
65010;BME280;51556;50.002;22.014;2023-02-01T15:44:38;98411.69;;;4.61;64.60
65010;BME280;51556;50.002;22.014;2023-02-01T15:47:15;98415.38;;;4.59;64.71